createdAt,value
2023-02-11T00:00:41.551Z,85.58
2023-02-11T00:03:08.397Z,85.17
2023-02-11T00:05:35.185Z,85.71
2023-02-11T00:08:02.697Z,86.04
2023-02-11T00:10:29.256Z,86.37
2023-02-11T00:12:57.257Z,86.50
2023-02-11T00:15:23.844Z,86.69
2023-02-11T00:17:51.481Z,85.08
2023-02-11T00:20:18.039Z,85.64
2023-02-11T00:22:46.015Z,84.89
2023-02-11T00:25:13.826Z,87.20
2023-02-11T00:27:44.681Z,87.84
2023-02-11T00:30:20.032Z,87.60
2023-02-11T00:33:07.808Z,87.00
2023-02-11T00:35:37.447Z,86.55
2023-02-11T00:38:04.000Z,89.24
2023-02-11T00:40:49.057Z,87.88
2023-02-11T00:43:27.612Z,88.96
2023-02-11T00:49:31.702Z,89.36
2023-02-11T00:55:28.896Z,88.38
2023-02-11T01:01:42.728Z,88.13
2023-02-11T01:04:12.970Z,86.41
2023-02-11T01:06:39.442Z,89.56
2023-02-11T01:09:05.984Z,87.85
2023-02-11T01:11:32.484Z,87.92
2023-02-11T01:13:59.016Z,88.99
2023-02-11T01:16:25.613Z,88.62
2023-02-11T01:18:52.134Z,88.58
2023-02-11T01:21:18.998Z,87.90
2023-02-11T01:23:45.471Z,89.94
2023-02-11T01:26:11.951Z,87.37
2023-02-11T01:28:38.544Z,87.67
2023-02-11T01:31:05.408Z,87.68
2023-02-11T01:33:31.940Z,88.95
2023-02-11T01:36:05.790Z,88.30
2023-02-11T01:38:33.684Z,88.87
2023-02-11T01:41:03.138Z,88.66
2023-02-11T01:43:33.021Z,89.07
2023-02-11T01:46:02.172Z,88.91
2023-02-11T01:48:39.505Z,86.97
2023-02-11T01:51:27.064Z,86.64
2023-02-11T01:54:12.690Z,87.85
2023-02-11T01:57:01.611Z,87.58
2023-02-11T01:59:33.621Z,88.07
2023-02-11T02:02:03.643Z,87.77
2023-02-11T02:04:34.912Z,88.53
2023-02-11T02:07:09.737Z,87.42
2023-02-11T02:09:42.720Z,88.00
2023-02-11T02:12:09.363Z,86.80
2023-02-11T02:14:40.633Z,85.94
2023-02-11T02:17:30.098Z,89.38
2023-02-11T02:20:19.272Z,87.91
2023-02-11T02:23:10.143Z,86.99
2023-02-11T02:26:15.266Z,87.38
2023-02-11T02:28:47.480Z,86.20
2023-02-11T02:31:25.376Z,88.14
2023-02-11T02:34:02.122Z,87.09
2023-02-11T02:36:43.643Z,87.86
2023-02-11T02:39:22.646Z,86.04
2023-02-11T02:41:50.551Z,85.54
2023-02-11T02:44:18.291Z,86.65
2023-02-11T02:46:44.887Z,89.27
2023-02-11T02:49:13.689Z,87.92
2023-02-11T02:51:57.139Z,88.84
2023-02-11T02:54:59.009Z,87.79
2023-02-11T02:58:03.031Z,89.41
2023-02-11T03:00:35.570Z,88.33
2023-02-11T03:03:22.646Z,88.23
2023-02-11T03:05:57.089Z,90.38
2023-02-11T03:08:34.847Z,90.31
2023-02-11T03:11:02.438Z,86.68
2023-02-11T03:13:33.801Z,90.88
2023-02-11T03:16:11.613Z,89.12
2023-02-11T03:18:40.352Z,88.38
2023-02-11T03:21:08.464Z,88.46
2023-02-11T03:23:39.230Z,86.34
2023-02-11T03:26:18.699Z,88.85
2023-02-11T03:29:10.628Z,88.73
2023-02-11T03:31:42.246Z,87.93
2023-02-11T03:34:19.406Z,89.13
2023-02-11T03:37:00.401Z,88.02
2023-02-11T03:39:35.166Z,89.70
2023-02-11T03:42:03.369Z,90.36
2023-02-11T03:44:33.424Z,90.83
2023-02-11T03:47:01.214Z,89.16
2023-02-11T03:49:28.841Z,93.51
2023-02-11T03:51:56.130Z,91.23
2023-02-11T03:54:28.877Z,92.94
2023-02-11T03:56:57.829Z,91.27
2023-02-11T03:59:24.726Z,91.53
2023-02-11T04:01:54.749Z,91.78
2023-02-11T04:04:21.375Z,91.37
2023-02-11T04:06:47.866Z,90.76
2023-02-11T04:09:15.132Z,92.74
2023-02-11T04:11:43.971Z,91.95
2023-02-11T04:14:10.620Z,91.16
2023-02-11T04:16:37.367Z,90.89
2023-02-11T04:19:04.187Z,89.03
2023-02-11T04:21:30.709Z,90.34
2023-02-11T04:23:57.379Z,90.69
2023-02-11T04:26:23.933Z,88.15
2023-02-11T04:28:52.795Z,89.92
2023-02-11T04:31:19.588Z,89.40
2023-02-11T04:33:46.413Z,89.77
2023-02-11T04:36:13.168Z,91.64
2023-02-11T04:38:39.695Z,89.85
2023-02-11T04:41:06.231Z,90.64
2023-02-11T04:43:32.751Z,90.43
2023-02-11T04:45:59.407Z,90.38
2023-02-11T04:48:26.347Z,91.19
2023-02-11T04:50:53.999Z,89.93
2023-02-11T04:53:21.242Z,90.14
2023-02-11T04:55:51.934Z,91.40
2023-02-11T04:58:19.802Z,88.95
2023-02-11T05:00:46.605Z,86.91
2023-02-11T05:03:13.584Z,88.18
2023-02-11T05:05:41.047Z,87.30
2023-02-11T05:08:08.728Z,89.34
2023-02-11T05:10:35.416Z,88.60
2023-02-11T05:13:01.901Z,90.55
2023-02-11T05:15:28.551Z,89.78
2023-02-11T05:17:55.603Z,89.13
2023-02-11T05:20:22.516Z,88.10
2023-02-11T05:22:49.072Z,85.84
2023-02-11T05:25:15.654Z,89.44
2023-02-11T05:27:42.219Z,86.93
2023-02-11T05:30:09.812Z,87.13
2023-02-11T05:32:36.403Z,86.59
2023-02-11T05:35:02.945Z,89.92
2023-02-11T05:37:29.484Z,86.55
2023-02-11T05:39:56.045Z,89.94
2023-02-11T05:42:22.573Z,87.73
2023-02-11T05:44:50.626Z,88.47
2023-02-11T05:47:17.301Z,91.92
2023-02-11T05:49:43.893Z,90.14
2023-02-11T05:52:10.403Z,89.14
2023-02-11T05:54:36.993Z,89.01
2023-02-11T05:57:03.808Z,88.79
2023-02-11T05:59:30.450Z,91.05
2023-02-11T06:01:56.924Z,89.90
2023-02-11T06:04:23.449Z,91.13
2023-02-11T06:06:50.100Z,91.18
2023-02-11T06:09:16.663Z,91.64
2023-02-11T06:11:43.251Z,89.76
2023-02-11T06:14:11.043Z,90.99
2023-02-11T06:16:37.810Z,88.43
2023-02-11T06:19:04.310Z,91.81
2023-02-11T06:21:42.845Z,90.02
2023-02-11T06:24:10.282Z,88.91
2023-02-11T06:26:37.002Z,90.89
2023-02-11T06:29:03.554Z,89.86
2023-02-11T06:31:30.467Z,91.11
2023-02-11T06:33:57.129Z,89.06
2023-02-11T06:36:23.715Z,86.82
2023-02-11T06:38:50.965Z,89.59
2023-02-11T06:41:20.208Z,92.21
2023-02-11T06:43:47.140Z,90.98
2023-02-11T06:46:13.777Z,89.64
2023-02-11T06:48:41.626Z,89.50
2023-02-11T06:51:10.399Z,90.00
2023-02-11T06:53:40.708Z,88.10
2023-02-11T06:56:10.240Z,90.27
2023-02-11T06:58:37.580Z,89.36
2023-02-11T07:01:06.766Z,89.41
2023-02-11T07:03:36.143Z,90.33
2023-02-11T07:06:04.595Z,91.18
2023-02-11T07:08:32.634Z,89.64
2023-02-11T07:10:59.107Z,88.12
2023-02-11T07:13:25.748Z,92.28
2023-02-11T07:15:52.615Z,90.62
2023-02-11T07:18:19.276Z,91.15
2023-02-11T07:20:45.799Z,92.27
2023-02-11T07:23:12.323Z,88.87
2023-02-11T07:25:38.802Z,88.55
2023-02-11T07:28:05.536Z,88.55
2023-02-11T07:30:32.131Z,89.47
2023-02-11T07:32:58.707Z,91.06
2023-02-11T07:35:25.301Z,90.59
2023-02-11T07:37:51.797Z,90.96
2023-02-11T07:40:18.423Z,90.81
2023-02-11T07:42:44.883Z,91.08
2023-02-11T07:45:11.504Z,91.58
2023-02-11T07:47:38.533Z,91.47
2023-02-11T07:50:05.317Z,91.19
2023-02-11T07:52:31.925Z,90.01
2023-02-11T07:54:58.421Z,90.19
2023-02-11T07:57:24.919Z,90.17
2023-02-11T07:59:51.496Z,89.12
2023-02-11T08:02:18.117Z,92.21
2023-02-11T08:04:46.781Z,91.07
2023-02-11T08:07:17.535Z,91.00
2023-02-11T08:09:44.442Z,90.63
2023-02-11T08:12:11.130Z,90.03
2023-02-11T08:14:37.670Z,92.54
2023-02-11T08:17:04.253Z,91.69
2023-02-11T08:19:31.602Z,91.93
2023-02-11T08:22:00.652Z,92.41
2023-02-11T08:24:27.084Z,90.10
2023-02-11T08:26:53.581Z,89.27
2023-02-11T08:29:20.052Z,89.27
2023-02-11T08:31:48.082Z,89.84
2023-02-11T08:34:18.275Z,88.09
2023-02-11T08:36:45.515Z,91.57
2023-02-11T08:39:19.645Z,90.81
2023-02-11T08:41:54.230Z,91.43
2023-02-11T08:44:21.417Z,90.79
2023-02-11T08:46:48.185Z,90.15
2023-02-11T08:49:15.072Z,92.21
2023-02-11T08:51:41.629Z,91.41
2023-02-11T08:54:09.880Z,91.68
2023-02-11T08:56:37.901Z,87.25
2023-02-11T08:59:04.835Z,90.37
2023-02-11T09:01:32.610Z,88.99
2023-02-11T09:03:59.776Z,88.50
2023-02-11T09:06:27.664Z,88.75
2023-02-11T09:08:56.665Z,90.21
2023-02-11T09:11:28.721Z,89.64
2023-02-11T09:13:55.223Z,90.56
2023-02-11T09:16:24.736Z,88.21
2023-02-11T09:18:51.677Z,88.16
2023-02-11T09:21:19.182Z,87.43
2023-02-11T09:23:47.724Z,88.81
2023-02-11T09:26:18.606Z,89.52
2023-02-11T09:28:45.144Z,89.23
2023-02-11T09:31:14.950Z,91.54
2023-02-11T09:33:48.016Z,88.00
2023-02-11T09:36:20.544Z,89.14
2023-02-11T09:38:47.802Z,88.58
2023-02-11T09:41:23.568Z,89.57
2023-02-11T09:43:57.647Z,88.33
2023-02-11T09:46:25.894Z,87.44
2023-02-11T09:48:54.242Z,89.46
2023-02-11T09:51:24.820Z,89.23
2023-02-11T09:53:54.500Z,87.11
2023-02-11T09:56:20.973Z,87.27
2023-02-11T09:58:47.476Z,89.27
2023-02-11T10:01:21.809Z,88.87
2023-02-11T10:04:14.714Z,87.44
2023-02-11T10:06:51.630Z,89.74
2023-02-11T10:09:24.464Z,88.72
2023-02-11T10:12:15.851Z,88.19
2023-02-11T10:15:03.872Z,89.92
2023-02-11T10:18:03.653Z,89.60
2023-02-11T10:20:44.267Z,90.30
2023-02-11T10:23:16.846Z,86.50
2023-02-11T10:25:45.568Z,89.03
2023-02-11T10:28:35.151Z,87.36
2023-02-11T10:31:26.334Z,89.70
2023-02-11T10:34:09.239Z,90.52
2023-02-11T10:36:38.459Z,92.88
2023-02-11T10:39:15.223Z,90.40
2023-02-11T10:41:47.875Z,91.34
2023-02-11T10:44:32.400Z,90.99
2023-02-11T10:47:05.333Z,92.92
2023-02-11T10:49:43.152Z,92.83
2023-02-11T10:52:21.341Z,92.89
2023-02-11T10:54:58.002Z,90.40
2023-02-11T10:57:29.272Z,89.20
2023-02-11T11:00:03.893Z,92.08
2023-02-11T11:02:36.010Z,91.52
2023-02-11T11:05:32.638Z,93.37
2023-02-11T11:08:01.264Z,92.03
2023-02-11T11:10:44.048Z,91.81
2023-02-11T11:13:24.819Z,91.41
2023-02-11T11:16:14.486Z,92.07
2023-02-11T11:18:42.564Z,93.23
2023-02-11T11:21:30.680Z,92.63
2023-02-11T11:24:01.723Z,94.61
2023-02-11T11:26:40.027Z,94.49
2023-02-11T11:29:14.568Z,91.62
2023-02-11T11:31:54.963Z,92.79
2023-02-11T11:34:56.174Z,94.02
2023-02-11T11:37:32.586Z,92.27
2023-02-11T11:40:22.113Z,92.34
2023-02-11T11:43:04.926Z,92.76
2023-02-11T11:45:31.733Z,90.71
2023-02-11T11:48:35.113Z,93.26
2023-02-11T11:51:05.161Z,93.05
2023-02-11T11:53:43.690Z,94.51
2023-02-11T11:56:16.810Z,92.38
2023-02-11T11:58:43.506Z,92.97
2023-02-11T12:01:16.131Z,92.82
2023-02-11T12:03:48.798Z,93.07
2023-02-11T12:06:39.614Z,94.64
2023-02-11T12:09:23.587Z,91.36
2023-02-11T12:12:02.164Z,91.61
2023-02-11T12:15:04.675Z,91.77
2023-02-11T12:17:50.868Z,89.66
2023-02-11T12:20:46.682Z,91.07
2023-02-11T12:23:26.180Z,90.38
2023-02-11T12:25:55.731Z,91.47
2023-02-11T12:28:31.333Z,89.89
2023-02-11T12:31:31.886Z,89.20
2023-02-11T12:34:23.226Z,90.66
2023-02-11T12:37:23.683Z,87.89
2023-02-11T12:40:12.804Z,88.62
2023-02-11T12:43:09.116Z,88.60
2023-02-11T12:46:13.622Z,90.82
2023-02-11T12:49:12.981Z,89.99
2023-02-11T12:51:45.919Z,89.60
2023-02-11T12:54:23.907Z,90.27
2023-02-11T12:57:08.068Z,89.79
2023-02-11T12:59:56.352Z,87.79
2023-02-11T13:03:04.792Z,89.47
2023-02-11T13:05:37.619Z,88.90
2023-02-11T13:08:42.480Z,88.67
2023-02-11T13:11:16.203Z,88.03
2023-02-11T13:13:45.803Z,87.38
2023-02-11T13:16:33.955Z,90.15
2023-02-11T13:19:19.353Z,89.53
2023-02-11T13:22:01.189Z,90.28
2023-02-11T13:24:49.652Z,90.12
2023-02-11T13:27:34.985Z,88.44
2023-02-11T13:30:32.992Z,88.57
2023-02-11T13:33:02.442Z,87.81
2023-02-11T13:35:40.041Z,87.94
2023-02-11T13:38:18.168Z,88.61
2023-02-11T13:40:45.175Z,89.62
2023-02-11T13:43:22.999Z,88.90
2023-02-11T13:45:50.624Z,89.90
2023-02-11T13:48:24.066Z,89.25
2023-02-11T13:50:54.017Z,89.93
2023-02-11T13:53:20.818Z,89.04
2023-02-11T13:55:50.016Z,88.54
2023-02-11T13:58:28.642Z,89.29
2023-02-11T14:00:55.391Z,89.88
2023-02-11T14:03:54.905Z,88.85
2023-02-11T14:06:49.050Z,87.89
2023-02-11T14:09:17.281Z,90.51
2023-02-11T14:11:52.566Z,89.37
2023-02-11T14:14:21.887Z,90.73
2023-02-11T14:17:06.811Z,89.22
2023-02-11T14:19:43.603Z,90.47
2023-02-11T14:22:18.435Z,89.80
2023-02-11T14:24:59.800Z,89.47
2023-02-11T14:27:45.049Z,88.96
2023-02-11T14:31:02.880Z,88.97
2023-02-11T14:33:50.620Z,88.63
2023-02-11T14:36:43.832Z,92.62
2023-02-11T14:39:22.853Z,90.58
2023-02-11T14:41:51.119Z,90.26
2023-02-11T14:44:23.688Z,87.01
2023-02-11T14:46:53.365Z,89.31
2023-02-11T14:49:27.596Z,87.81
2023-02-11T14:51:57.656Z,88.31
2023-02-11T14:54:25.367Z,89.17
2023-02-11T14:57:15.896Z,87.58
2023-02-11T14:59:59.366Z,85.63
2023-02-11T15:02:32.405Z,88.28
2023-02-11T15:05:22.537Z,87.27
2023-02-11T15:07:54.443Z,88.36
2023-02-11T15:10:30.034Z,87.04
2023-02-11T15:12:56.668Z,87.18
2023-02-11T15:15:23.367Z,90.11
2023-02-11T15:17:50.190Z,87.39
2023-02-11T15:20:22.924Z,87.90
2023-02-11T15:22:52.263Z,88.79
2023-02-11T15:25:20.157Z,87.08
2023-02-11T15:27:49.244Z,88.57
2023-02-11T15:30:21.779Z,88.53
2023-02-11T15:32:58.654Z,89.90
2023-02-11T15:35:38.387Z,89.01
2023-02-11T15:38:04.978Z,87.85
2023-02-11T15:40:34.163Z,86.14
2023-02-11T15:43:10.889Z,86.06
2023-02-11T15:45:43.101Z,87.18
2023-02-11T15:48:16.390Z,86.60
2023-02-11T15:50:48.094Z,82.37
2023-02-11T15:53:27.020Z,85.79
2023-02-11T15:56:02.052Z,86.99
2023-02-11T15:58:28.681Z,85.06
2023-02-11T16:00:59.765Z,85.61
2023-02-11T16:03:32.308Z,86.49
2023-02-11T16:06:18.913Z,84.45
2023-02-11T16:09:05.170Z,86.69
2023-02-11T16:11:55.906Z,86.38
2023-02-11T16:14:31.712Z,86.28
2023-02-11T16:17:11.402Z,86.87
2023-02-11T16:19:44.308Z,88.71
2023-02-11T16:22:14.351Z,86.37
2023-02-11T16:24:40.921Z,85.70
2023-02-11T16:27:30.331Z,87.62
2023-02-11T16:29:57.829Z,86.75
2023-02-11T16:32:28.896Z,87.89
2023-02-11T16:35:00.733Z,91.25
2023-02-11T16:37:27.319Z,90.40
2023-02-11T16:39:54.899Z,90.73
2023-02-11T16:42:21.416Z,90.78
2023-02-11T16:44:47.843Z,90.02
2023-02-11T16:47:20.974Z,88.70
2023-02-11T16:49:47.928Z,87.74
2023-02-11T16:52:15.871Z,88.73
2023-02-11T16:54:42.685Z,87.47
2023-02-11T16:57:14.138Z,88.39
2023-02-11T16:59:40.589Z,90.18
2023-02-11T17:02:14.212Z,89.54
2023-02-11T17:04:40.857Z,87.97
2023-02-11T17:07:07.773Z,90.19
2023-02-11T17:09:34.301Z,88.70
2023-02-11T17:12:01.399Z,88.12
2023-02-11T17:14:27.868Z,88.17
2023-02-11T17:16:54.338Z,87.63
2023-02-11T17:19:21.828Z,88.42
2023-02-11T17:21:51.134Z,87.15
2023-02-11T17:24:18.450Z,87.93
2023-02-11T17:26:45.411Z,87.74
2023-02-11T17:29:14.740Z,88.07
2023-02-11T17:31:41.442Z,90.03
2023-02-11T17:34:08.340Z,88.83
2023-02-11T17:36:35.013Z,91.07
2023-02-11T17:39:01.604Z,87.60
2023-02-11T17:41:28.622Z,88.25
2023-02-11T17:43:58.278Z,88.42
2023-02-11T17:46:25.051Z,88.95
2023-02-11T17:48:53.170Z,88.80
2023-02-11T17:51:39.275Z,88.65
2023-02-11T17:54:08.166Z,88.16
2023-02-11T17:56:35.965Z,88.11
2023-02-11T17:59:03.260Z,88.68
2023-02-11T18:01:31.350Z,87.92
2023-02-11T18:03:57.880Z,85.75
2023-02-11T18:06:25.994Z,88.79
2023-02-11T18:08:52.483Z,87.80
2023-02-11T18:11:19.002Z,89.40
2023-02-11T18:13:45.594Z,89.77
2023-02-11T18:16:15.945Z,88.85
2023-02-11T18:18:43.318Z,89.81
2023-02-11T18:21:14.650Z,87.73
2023-02-11T18:23:43.480Z,89.65
2023-02-11T18:26:11.919Z,87.69
2023-02-11T18:28:39.783Z,87.61
2023-02-11T18:31:08.090Z,87.03
2023-02-11T18:33:39.107Z,88.40
2023-02-11T18:36:10.502Z,87.57
2023-02-11T18:38:38.215Z,88.12
2023-02-11T18:41:05.247Z,87.53
2023-02-11T18:43:33.747Z,87.74
2023-02-11T18:46:01.537Z,88.29
2023-02-11T18:48:31.165Z,88.42
2023-02-11T18:50:57.611Z,89.05
2023-02-11T18:53:25.103Z,89.96
2023-02-11T18:55:52.718Z,87.78
2023-02-11T18:58:21.231Z,88.91
2023-02-11T19:00:49.183Z,88.80
2023-02-11T19:03:15.825Z,88.76
2023-02-11T19:05:44.267Z,90.38
2023-02-11T19:08:11.137Z,89.71
2023-02-11T19:10:46.202Z,88.38
2023-02-11T19:13:13.864Z,89.05
2023-02-11T19:15:42.108Z,88.55
2023-02-11T19:18:08.584Z,89.16
2023-02-11T19:20:35.045Z,90.21
2023-02-11T19:23:01.523Z,91.53
2023-02-11T19:25:28.005Z,91.11
2023-02-11T19:27:54.483Z,87.36
2023-02-11T19:30:21.137Z,87.79
2023-02-11T19:32:52.470Z,89.89
2023-02-11T19:35:19.671Z,89.12
2023-02-11T19:37:46.152Z,89.97
2023-02-11T19:40:13.379Z,87.92
2023-02-11T19:42:39.842Z,87.54
2023-02-11T19:45:07.405Z,87.03
2023-02-11T19:47:34.423Z,88.67
2023-02-11T19:50:00.942Z,89.69
2023-02-11T19:52:27.480Z,87.73
2023-02-11T19:54:55.998Z,90.08
2023-02-11T19:57:22.441Z,88.58
2023-02-11T19:59:49.299Z,89.59
2023-02-11T20:02:15.890Z,89.16
2023-02-11T20:04:42.372Z,91.15
2023-02-11T20:07:08.822Z,88.47
2023-02-11T20:09:35.350Z,88.22
2023-02-11T20:12:01.844Z,87.51
2023-02-11T20:14:28.418Z,89.23
2023-02-11T20:16:56.969Z,88.63
2023-02-11T20:19:23.680Z,87.15
2023-02-11T20:21:55.821Z,89.58
2023-02-11T20:24:23.560Z,88.26
2023-02-11T20:26:51.647Z,88.48
2023-02-11T20:29:18.438Z,89.59
2023-02-11T20:31:45.282Z,90.37
2023-02-11T20:34:12.594Z,90.00
2023-02-11T20:36:40.294Z,87.83
2023-02-11T20:39:07.552Z,88.91
2023-02-11T20:41:38.725Z,89.80
2023-02-11T20:44:07.748Z,89.92
2023-02-11T20:46:34.997Z,87.55
2023-02-11T20:49:02.129Z,89.44
2023-02-11T20:51:31.549Z,88.06
2023-02-11T20:53:59.013Z,89.55
2023-02-11T20:56:31.515Z,89.24
2023-02-11T20:59:02.403Z,90.06
2023-02-11T21:01:35.140Z,89.39
2023-02-11T21:04:08.705Z,89.57
2023-02-11T21:06:38.248Z,90.78
2023-02-11T21:09:06.534Z,89.87
2023-02-11T21:11:33.305Z,89.22
2023-02-11T21:14:00.217Z,89.16
2023-02-11T21:16:27.258Z,88.11
2023-02-11T21:18:55.455Z,90.38
2023-02-11T21:21:22.166Z,89.50
2023-02-11T21:23:48.632Z,89.31
2023-02-11T21:26:17.133Z,89.07
2023-02-11T21:28:43.826Z,88.33
2023-02-11T21:31:21.265Z,89.83
2023-02-11T21:33:59.452Z,91.62
2023-02-11T21:36:27.576Z,90.48
2023-02-11T21:38:54.407Z,90.43
2023-02-11T21:41:25.003Z,90.21
2023-02-11T21:43:52.033Z,91.18
2023-02-11T21:46:19.652Z,89.07
2023-02-11T21:48:51.526Z,89.21
2023-02-11T21:51:20.792Z,88.85
2023-02-11T21:53:47.398Z,88.60
2023-02-11T21:56:16.637Z,89.33
2023-02-11T21:58:43.503Z,87.35
2023-02-11T22:01:18.362Z,90.14
2023-02-11T22:03:45.732Z,88.45
2023-02-11T22:06:14.690Z,88.39
2023-02-11T22:08:41.429Z,88.23
2023-02-11T22:11:11.448Z,88.46
2023-02-11T22:13:38.153Z,86.69
2023-02-11T22:16:07.217Z,87.39
2023-02-11T22:18:33.748Z,88.03
2023-02-11T22:21:08.919Z,86.65
2023-02-11T22:23:36.108Z,86.57
2023-02-11T22:26:14.639Z,87.81
2023-02-11T22:28:41.743Z,87.73
2023-02-11T22:31:13.378Z,88.83
2023-02-11T22:33:40.189Z,88.82
2023-02-11T22:36:09.288Z,88.61
2023-02-11T22:38:40.951Z,90.92
2023-02-11T22:41:10.177Z,91.22
2023-02-11T22:43:37.208Z,89.67
2023-02-11T22:46:05.352Z,90.11
2023-02-11T22:48:32.663Z,91.01
2023-02-11T22:51:11.442Z,90.83
2023-02-11T22:53:37.995Z,90.89
2023-02-11T22:56:07.182Z,92.27
2023-02-11T22:58:34.500Z,89.32
2023-02-11T23:01:01.472Z,90.42
2023-02-11T23:03:28.639Z,88.08
2023-02-11T23:05:55.508Z,91.68
2023-02-11T23:08:22.201Z,91.17
2023-02-11T23:10:49.305Z,91.13
2023-02-11T23:13:16.012Z,91.09
2023-02-11T23:15:43.944Z,89.87
2023-02-11T23:18:12.577Z,90.49
2023-02-11T23:20:41.273Z,89.45
2023-02-11T23:23:07.905Z,91.48
2023-02-11T23:25:34.824Z,90.92
2023-02-11T23:28:01.685Z,90.11
2023-02-11T23:30:28.762Z,91.17
2023-02-11T23:32:55.340Z,90.35
2023-02-11T23:35:24.923Z,90.84
2023-02-11T23:37:52.779Z,90.48
2023-02-11T23:40:20.762Z,91.07
2023-02-11T23:42:47.775Z,91.48
2023-02-11T23:45:14.849Z,91.77
2023-02-11T23:47:41.973Z,91.00
2023-02-11T23:50:09.703Z,89.86
2023-02-11T23:52:36.744Z,91.43
2023-02-11T23:55:03.687Z,92.31
2023-02-11T23:57:32.544Z,92.49
